Time;durP1;ratioP1;P1;durP2;ratioP2;P2;SDS_P1;SDS_P2;PMS_P1;PMS_P2;Temp;Humidity;BMP_temperature;BMP_pressure;BME280_temperature;BME280_humidity;BME280_pressure;Samples;Min_cycle;Max_cycle;Signal;HPM_P1;HPM_P2
2022/03/15 00:00:56;;;;;;;14.88;5.70;;;;;;;1.65;78.09;96550.41;5049295;28;20041;-75
2022/03/15 00:03:22;;;;;;;12.48;5.70;;;;;;;1.60;77.84;96547.59;5050088;28;20067;-75
2022/03/15 00:05:48;;;;;;;11.40;5.82;;;;;;;1.67;77.54;96553.66;5047867;28;20741;-75
2022/03/15 00:08:15;;;;;;;12.88;5.95;;;;;;;1.67;77.38;96551.84;5065685;28;20128;-75
2022/03/15 00:10:41;;;;;;;9.63;5.05;;;;;;;1.63;77.65;96542.03;5034749;28;20487;-75
2022/03/15 00:13:07;;;;;;;10.40;5.22;;;;;;;1.63;78.16;96536.84;5034362;28;20046;-75
2022/03/15 00:15:35;;;;;;;14.23;5.90;;;;;;;1.63;78.54;96536.84;5039527;28;20037;-75
2022/03/15 00:18:02;;;;;;;11.73;5.35;;;;;;;1.66;77.85;96536.47;5029429;28;20044;-75
2022/03/15 00:20:27;;;;;;;9.88;5.20;;;;;;;1.82;77.71;96536.19;5030310;28;20033;-75
2022/03/15 00:22:57;;;;;;;13.98;6.47;;;;;;;1.82;77.24;96535.38;5029935;28;20515;-75
2022/03/15 00:25:23;;;;;;;15.75;6.25;;;;;;;1.81;77.60;96534.59;5035062;28;20048;-75
2022/03/15 00:27:53;;;;;;;13.95;5.93;;;;;;;1.76;77.77;96536.16;5050277;28;20045;-75
2022/03/15 00:30:21;;;;;;;11.15;6.10;;;;;;;1.69;77.94;96533.50;5043514;28;20128;-74
2022/03/15 00:32:48;;;;;;;14.63;6.00;;;;;;;1.69;78.16;96534.28;5028347;28;20048;-74
2022/03/15 00:35:17;;;;;;;10.88;5.43;;;;;;;1.78;77.53;96534.97;5033232;28;20048;-75
2022/03/15 00:37:43;;;;;;;13.52;6.05;;;;;;;1.84;77.53;96544.59;5038991;28;20049;-74
2022/03/15 00:40:10;;;;;;;18.40;6.35;;;;;;;1.85;77.42;96535.00;5030439;28;20036;-75
2022/03/15 00:42:35;;;;;;;12.55;5.90;;;;;;;1.70;78.23;96537.69;5029402;28;20091;-75
2022/03/15 00:45:01;;;;;;;14.18;5.60;;;;;;;1.64;79.10;96538.44;5030755;28;20120;-75
2022/03/15 00:47:28;;;;;;;13.60;6.10;;;;;;;1.28;81.31;96534.13;5050555;28;20557;-75
2022/03/15 00:49:54;;;;;;;15.88;6.57;;;;;;;1.19;82.18;96526.50;5062749;28;20048;-75
2022/03/15 00:52:19;;;;;;;13.38;6.13;;;;;;;1.36;81.01;96521.03;5032900;28;20049;-75
2022/03/15 00:54:45;;;;;;;15.07;6.15;;;;;;;1.34;81.62;96520.44;5039993;28;20056;-76
2022/03/15 00:57:11;;;;;;;12.93;6.47;;;;;;;1.36;81.82;96523.63;5040129;28;20048;-75
2022/03/15 00:59:37;;;;;;;16.55;6.45;;;;;;;1.50;80.65;96521.97;5041510;28;20574;-76
2022/03/15 01:02:03;;;;;;;12.57;6.30;;;;;;;1.56;80.09;96519.41;5032779;28;20052;-76
2022/03/15 01:04:28;;;;;;;13.20;6.80;;;;;;;1.70;79.82;96522.13;5035813;28;20041;-76
2022/03/15 01:06:54;;;;;;;12.80;6.30;;;;;;;1.80;78.91;96520.00;5043137;28;20506;-76
2022/03/15 01:09:20;;;;;;;12.60;6.28;;;;;;;1.83;79.38;96522.22;5031561;28;20049;-76
2022/03/15 01:11:45;;;;;;;14.40;6.40;;;;;;;1.77;78.92;96512.59;5030802;28;20451;-76
2022/03/15 01:14:11;;;;;;;14.02;6.07;;;;;;;1.73;79.64;96513.97;5029447;28;20045;-76
2022/03/15 01:16:37;;;;;;;12.75;5.80;;;;;;;1.67;79.31;96509.53;5036781;28;20503;-76
2022/03/15 01:19:06;;;;;;;12.90;6.30;;;;;;;1.66;79.44;96515.72;5046479;28;20608;-76
2022/03/15 01:21:32;;;;;;;13.70;6.50;;;;;;;1.66;79.60;96513.13;5041153;28;20037;-76
2022/03/15 01:23:57;;;;;;;19.35;6.53;;;;;;;1.61;80.44;96503.31;5040632;28;20033;-77
2022/03/15 01:26:23;;;;;;;11.77;6.35;;;;;;;1.69;80.08;96510.13;5046707;28;20052;-77
2022/03/15 01:28:48;;;;;;;12.98;6.20;;;;;;;1.66;80.00;96505.31;5038101;28;20052;-76
2022/03/15 01:31:14;;;;;;;18.70;6.70;;;;;;;1.66;80.18;96505.31;5036137;28;20037;-76
2022/03/15 01:33:39;;;;;;;15.35;6.90;;;;;;;1.74;80.19;96505.19;5036002;28;20045;-77
2022/03/15 01:36:05;;;;;;;18.73;6.70;;;;;;;1.70;79.77;96512.53;5028347;28;20101;-76
2022/03/15 01:38:34;;;;;;;13.02;6.57;;;;;;;1.63;80.20;96508.31;5034984;28;20075;-77
2022/03/15 01:41:00;;;;;;;17.30;6.75;;;;;;;1.64;80.33;96502.09;5039604;28;20053;-77
2022/03/15 01:43:25;;;;;;;15.65;6.88;;;;;;;1.61;80.20;96502.47;5028675;28;20076;-77
2022/03/15 01:45:53;;;;;;;15.05;7.00;;;;;;;1.52;80.67;96489.66;5029322;28;20038;-77
2022/03/15 01:48:20;;;;;;;15.50;6.38;;;;;;;1.56;80.46;96498.66;5041259;28;20443;-77
2022/03/15 01:50:45;;;;;;;16.70;6.47;;;;;;;1.58;80.61;96492.47;5064956;28;20069;-77
2022/03/15 01:53:14;;;;;;;12.70;5.95;;;;;;;1.53;80.08;96491.25;5045322;28;20065;-77
2022/03/15 01:55:39;;;;;;;13.48;6.72;;;;;;;1.56;80.69;96490.88;5042883;28;20042;-77
2022/03/15 01:58:05;;;;;;;12.55;6.35;;;;;;;1.59;80.61;96494.88;5029516;28;20446;-76
2022/03/15 02:00:31;;;;;;;17.90;6.65;;;;;;;1.43;80.53;96485.59;5044329;28;20037;-75
2022/03/15 02:02:57;;;;;;;14.13;6.47;;;;;;;1.25;82.45;96473.09;5037562;28;20049;-75
2022/03/15 02:05:23;;;;;;;12.98;6.88;;;;;;;1.12;84.20;96468.56;5037368;28;20068;-75
2022/03/15 02:07:48;;;;;;;18.00;6.50;;;;;;;1.06;84.55;96464.13;5040990;28;20102;-76
2022/03/15 02:10:14;;;;;;;13.48;6.45;;;;;;;1.04;84.42;96456.53;5041989;28;20041;-77
2022/03/15 02:12:40;;;;;;;14.52;6.55;;;;;;;1.25;83.38;96461.88;5042110;28;20858;-77
2022/03/15 02:15:07;;;;;;;14.60;6.70;;;;;;;1.30;83.14;96459.56;5046758;28;20094;-77
2022/03/15 02:17:33;;;;;;;16.48;6.88;;;;;;;1.31;83.03;96456.75;5042705;28;20049;-76
2022/03/15 02:19:59;;;;;;;12.18;6.55;;;;;;;1.21;83.77;96446.72;5041221;28;20124;-77
2022/03/15 02:22:25;;;;;;;14.23;6.53;;;;;;;1.06;84.93;96447.78;5047955;28;20041;-77
2022/03/15 02:24:51;;;;;;;14.02;6.30;;;;;;;1.24;83.87;96452.53;5036929;28;20130;-77
2022/03/15 02:27:20;;;;;;;13.90;6.30;;;;;;;1.30;83.38;96449.19;5031108;28;20042;-77
2022/03/15 02:29:45;;;;;;;17.30;6.40;;;;;;;1.25;83.53;96448.91;5054887;28;20044;-77
2022/03/15 02:32:11;;;;;;;13.35;6.60;;;;;;;1.16;83.88;96449.03;5038351;28;20033;-77
2022/03/15 02:34:37;;;;;;;11.98;6.43;;;;;;;1.28;83.59;96445.94;5051807;28;20076;-76
2022/03/15 02:37:03;;;;;;;14.90;6.70;;;;;;;1.33;83.43;96453.97;5049452;28;20048;-76
2022/03/15 02:39:28;;;;;;;15.65;7.05;;;;;;;1.35;83.09;96452.00;5039257;28;20037;-76
2022/03/15 02:41:54;;;;;;;11.75;6.75;;;;;;;1.01;85.21;96446.53;5036375;28;20094;-76
2022/03/15 02:44:20;;;;;;;13.23;6.30;;;;;;;0.78;87.07;96445.91;5037717;28;20045;-76
2022/03/15 02:46:49;;;;;;;12.32;6.50;;;;;;;0.98;85.48;96461.66;5045939;28;20045;-76
2022/03/15 02:49:16;;;;;;;13.82;6.25;;;;;;;1.20;85.24;96445.09;5049286;28;20629;-76
2022/03/15 02:51:41;;;;;;;13.75;6.43;;;;;;;1.04;85.79;96440.97;5046823;28;20034;-76
2022/03/15 02:54:11;;;;;;;16.90;7.13;;;;;;;0.94;86.43;96434.50;5047294;28;20445;-76
2022/03/15 02:56:42;;;;;;;12.13;6.63;;;;;;;0.95;85.71;96428.31;5035427;28;20088;-76
2022/03/15 02:59:14;;;;;;;13.57;6.60;;;;;;;0.89;86.64;96421.28;5050476;28;20219;-76
2022/03/15 03:01:44;;;;;;;14.15;6.63;;;;;;;0.95;86.85;96421.38;5049627;28;20072;-76
2022/03/15 03:04:10;;;;;;;13.02;6.32;;;;;;;1.05;85.44;96421.06;5042388;28;20091;-76
2022/03/15 03:06:36;;;;;;;14.43;6.55;;;;;;;0.99;85.43;96417.41;5030581;28;20052;-76
2022/03/15 03:09:03;;;;;;;12.63;6.57;;;;;;;0.98;86.03;96415.00;5031850;28;20093;-76
2022/03/15 03:11:29;;;;;;;16.70;7.65;;;;;;;0.96;86.64;96416.97;5038565;28;20091;-76
2022/03/15 03:13:57;;;;;;;12.45;6.63;;;;;;;1.14;85.11;96414.75;5049085;28;20041;-76
2022/03/15 03:16:23;;;;;;;12.18;6.22;;;;;;;1.16;85.05;96412.75;5049609;28;20590;-76
2022/03/15 03:18:49;;;;;;;14.75;6.88;;;;;;;1.17;85.20;96418.75;5044007;28;20495;-76
2022/03/15 03:21:15;;;;;;;13.75;7.28;;;;;;;1.19;85.66;96422.78;5051885;28;20037;-76
2022/03/15 03:23:40;;;;;;;14.60;7.00;;;;;;;1.18;85.69;96421.16;5037281;28;20049;-76
2022/03/15 03:26:06;;;;;;;15.55;7.13;;;;;;;0.96;86.80;96422.16;5046393;28;20045;-76
2022/03/15 03:28:39;;;;;;;16.02;6.53;;;;;;;1.04;86.16;96424.63;5038206;28;20037;-76
2022/03/15 03:31:07;;;;;;;13.25;6.90;;;;;;;1.11;85.54;96417.72;5037538;28;20388;-76
2022/03/15 03:33:33;;;;;;;15.75;7.50;;;;;;;1.13;85.92;96417.53;5034215;28;20036;-76
2022/03/15 03:35:59;;;;;;;15.77;7.00;;;;;;;1.15;85.45;96407.75;5046779;28;20056;-76
2022/03/15 03:38:25;;;;;;;16.98;7.22;;;;;;;1.14;85.16;96409.56;5048675;28;20167;-76
2022/03/15 03:40:51;;;;;;;16.90;7.07;;;;;;;1.09;85.24;96411.88;5040383;28;20049;-77
2022/03/15 03:43:17;;;;;;;17.42;7.18;;;;;;;1.04;85.42;96409.06;5034877;28;20059;-76
2022/03/15 03:45:42;;;;;;;13.68;7.20;;;;;;;1.02;85.38;96405.84;5040441;28;20043;-76
2022/03/15 03:48:08;;;;;;;16.20;6.55;;;;;;;1.12;84.79;96411.53;5033120;28;20057;-76
2022/03/15 03:50:36;;;;;;;12.23;6.40;;;;;;;1.05;85.17;96410.69;5043872;28;20095;-76
2022/03/15 03:53:03;;;;;;;15.25;6.82;;;;;;;1.04;85.12;96409.88;5032238;28;20513;-76
2022/03/15 03:55:29;;;;;;;13.80;6.95;;;;;;;0.96;85.48;96411.78;5048581;28;20044;-76
2022/03/15 03:57:55;;;;;;;12.20;6.80;;;;;;;0.89;85.42;96400.56;5048115;28;20501;-76
2022/03/15 04:00:20;;;;;;;14.10;6.93;;;;;;;0.80;86.13;96408.44;5047545;28;20040;-76
2022/03/15 04:02:46;;;;;;;14.20;6.90;;;;;;;0.93;85.96;96401.78;5031322;28;20637;-76
2022/03/15 04:05:13;;;;;;;13.52;7.05;;;;;;;0.96;86.03;96411.78;5035155;28;20037;-76
2022/03/15 04:07:40;;;;;;;12.18;6.57;;;;;;;1.03;85.62;96412.66;5044401;28;20419;-76
2022/03/15 04:10:08;;;;;;;14.00;6.93;;;;;;;1.00;86.32;96425.97;5031915;28;20052;-76
2022/03/15 04:12:35;;;;;;;13.50;7.45;;;;;;;0.75;87.91;96416.00;5034240;28;20552;-75
2022/03/15 04:15:03;;;;;;;15.63;7.78;;;;;;;0.73;87.79;96412.78;5043245;28;20068;-76
2022/03/15 04:17:28;;;;;;;15.80;7.35;;;;;;;0.78;86.88;96410.44;5038581;28;20052;-75
2022/03/15 04:19:54;;;;;;;15.68;6.90;;;;;;;0.74;86.48;96409.19;5050841;28;20045;-76
2022/03/15 04:22:20;;;;;;;15.07;7.32;;;;;;;0.68;86.90;96415.13;5043381;28;20569;-75
2022/03/15 04:24:45;;;;;;;14.27;7.10;;;;;;;0.51;88.34;96410.16;5047559;28;20116;-76
2022/03/15 04:27:11;;;;;;;13.32;6.90;;;;;;;0.67;88.19;96411.72;5036942;28;20447;-76
2022/03/15 04:29:37;;;;;;;14.18;7.05;;;;;;;0.71;87.64;96412.16;5043967;28;20048;-75
2022/03/15 04:32:03;;;;;;;14.45;7.15;;;;;;;0.71;87.03;96412.16;5039583;28;20052;-75
2022/03/15 04:34:30;;;;;;;14.18;7.00;;;;;;;0.82;86.94;96422.03;5044652;28;20083;-75
2022/03/15 04:36:57;;;;;;;16.02;7.30;;;;;;;0.86;86.86;96418.09;5040613;28;20037;-75
2022/03/15 04:39:23;;;;;;;14.93;6.90;;;;;;;0.76;86.64;96412.44;5044721;28;20041;-75
2022/03/15 04:41:50;;;;;;;14.50;7.10;;;;;;;0.49;88.92;96412.16;5048708;28;20067;-76
2022/03/15 04:44:15;;;;;;;12.35;7.20;;;;;;;0.66;87.51;96414.50;5047424;28;20052;-75
2022/03/15 04:46:41;;;;;;;14.40;7.15;;;;;;;0.56;88.46;96416.59;5040944;28;20046;-75
2022/03/15 04:49:07;;;;;;;13.20;7.57;;;;;;;0.21;91.08;96419.00;5029993;28;20046;-75
2022/03/15 04:51:32;;;;;;;13.27;7.18;;;;;;;0.40;89.75;96418.41;5030138;28;20049;-74
2022/03/15 04:53:58;;;;;;;15.30;7.13;;;;;;;0.58;88.97;96419.81;5035402;28;20038;-74
2022/03/15 04:56:24;;;;;;;16.02;6.97;;;;;;;0.76;88.46;96415.00;5031889;28;20044;-74
2022/03/15 04:58:50;;;;;;;17.80;7.55;;;;;;;0.77;88.42;96421.78;5033568;28;20037;-74
2022/03/15 05:01:15;;;;;;;15.93;7.90;;;;;;;0.86;87.84;96418.09;5032058;28;20105;-75
2022/03/15 05:03:41;;;;;;;13.15;7.35;;;;;;;0.69;88.97;96416.75;5038349;28;20414;-75
2022/03/15 05:06:07;;;;;;;15.85;7.82;;;;;;;0.68;89.08;96409.94;5039138;28;20081;-75
2022/03/15 05:08:32;;;;;;;16.88;8.18;;;;;;;0.84;88.53;96420.06;5029982;28;20076;-75
2022/03/15 05:11:07;;;;;;;14.57;7.38;;;;;;;0.88;88.21;96420.50;5043657;28;20067;-75
2022/03/15 05:13:35;;;;;;;;;;;;;;;0.98;87.76;96420.19;5035014;28;20038;-75
2022/03/15 05:16:01;;;;;;;17.30;7.20;;;;;;;0.94;87.98;96418.97;5029411;28;19921;-75
2022/03/15 05:18:27;;;;;;;21.45;7.43;;;;;;;0.99;87.86;96416.59;5043842;28;20112;-74
2022/03/15 05:20:52;;;;;;;14.48;7.57;;;;;;;0.98;87.69;96402.06;5047149;28;20152;-75
2022/03/15 05:23:18;;;;;;;14.35;6.82;;;;;;;1.01;87.56;96409.44;5039679;28;20453;-75
2022/03/15 05:25:44;;;;;;;12.13;6.95;;;;;;;0.90;88.34;96397.00;5052381;28;20050;-75
2022/03/15 05:28:10;;;;;;;15.95;8.32;;;;;;;0.94;88.74;96406.00;5041407;28;20056;-75
2022/03/15 07:24:19;;;;;;;38.78;10.27;;;;;;;4.01;81.20;96428.69;5082656;27;20382;-74
2022/03/15 07:26:45;;;;;;;22.38;11.07;;;;;;;4.23;79.65;96437.84;5079082;28;20040;-75
2022/03/15 07:29:10;;;;;;;50.80;11.63;;;;;;;4.33;78.97;96433.00;5068746;28;20051;-75
2022/03/15 07:31:36;;;;;;;28.45;11.15;;;;;;;4.61;77.61;96444.94;5073195;28;20048;-74
2022/03/15 07:34:02;;;;;;;26.40;11.10;;;;;;;4.83;76.84;96442.00;5069500;28;20049;-74
2022/03/15 07:36:27;;;;;;;26.85;12.35;;;;;;;4.93;76.77;96439.75;5065830;28;20033;-74
2022/03/15 07:38:53;;;;;;;22.02;10.48;;;;;;;5.10;75.77;96436.59;5070825;28;20036;-74
2022/03/15 07:41:21;;;;;;;32.97;11.20;;;;;;;5.28;75.53;96444.50;5076233;28;20032;-74
2022/03/15 07:43:47;;;;;;;32.60;12.35;;;;;;;5.50;74.38;96446.75;5070427;28;20045;-74
2022/03/15 07:46:13;;;;;;;29.65;11.00;;;;;;;5.61;74.20;96443.44;5070234;28;20425;-75
2022/03/15 07:48:39;;;;;;;29.20;11.30;;;;;;;5.69;74.35;96445.78;5085033;28;20040;-75
2022/03/15 07:51:04;;;;;;;25.50;11.85;;;;;;;5.71;73.77;96443.75;5068807;28;20067;-73
2022/03/15 07:53:30;;;;;;;22.20;10.02;;;;;;;5.80;74.64;96439.03;5066936;28;20033;-74
2022/03/15 07:55:56;;;;;;;21.20;10.30;;;;;;;5.91;73.31;96442.78;5078839;28;20043;-73
2022/03/15 07:58:22;;;;;;;23.48;9.70;;;;;;;6.12;72.79;96438.16;5077553;28;20051;-74
2022/03/15 08:00:48;;;;;;;21.30;9.55;;;;;;;6.24;71.49;96436.44;5072212;28;20057;-74
2022/03/15 08:03:14;;;;;;;31.60;10.57;;;;;;;6.31;70.76;96426.69;5077818;28;20044;-74
2022/03/15 08:05:40;;;;;;;27.58;9.05;;;;;;;6.47;71.14;96429.75;5082005;28;20039;-74
2022/03/15 08:08:07;;;;;;;23.75;8.60;;;;;;;6.68;69.05;96431.06;5073171;28;20589;-74
2022/03/15 08:10:33;;;;;;;21.30;7.55;;;;;;;6.64;68.41;96430.72;5080764;28;20037;-74
2022/03/15 08:12:59;;;;;;;17.25;7.32;;;;;;;6.73;68.03;96429.38;5079029;28;20392;-74
2022/03/15 08:15:24;;;;;;;15.40;7.50;;;;;;;6.56;71.72;96428.41;5078274;28;20033;-74
2022/03/15 08:17:50;;;;;;;15.18;7.68;;;;;;;6.46;72.31;96428.91;5068621;28;20477;-75
2022/03/15 08:20:19;;;;;;;15.98;7.32;;;;;;;6.47;72.41;96429.75;5070137;28;20089;-74
2022/03/15 08:22:46;;;;;;;20.20;7.97;;;;;;;6.58;70.18;96413.31;5066448;28;20091;-73
2022/03/15 08:25:11;;;;;;;15.10;7.40;;;;;;;6.69;69.83;96416.97;5071327;28;20052;-72
2022/03/15 08:27:37;;;;;;;17.55;7.07;;;;;;;6.67;69.77;96409.34;5077862;28;20044;-73
2022/03/15 08:30:03;;;;;;;18.70;7.18;;;;;;;6.69;69.54;96412.53;5085640;28;20040;-73
2022/03/15 08:32:29;;;;;;;17.70;5.95;;;;;;;6.71;69.13;96400.03;5081226;28;20482;-73
2022/03/15 08:34:54;;;;;;;13.02;5.85;;;;;;;6.75;67.75;96403.00;5064204;28;20037;-73
2022/03/15 08:37:20;;;;;;;13.10;5.70;;;;;;;6.92;67.27;96395.31;5065529;28;20037;-75
2022/03/15 08:39:46;;;;;;;17.15;6.05;;;;;;;7.08;67.58;96405.16;5063374;28;20040;-74
2022/03/15 08:42:12;;;;;;;11.13;6.15;;;;;;;7.08;68.72;96404.34;5063808;28;20044;-73
2022/03/15 08:44:37;;;;;;;17.02;5.80;;;;;;;7.07;70.44;96408.78;5063792;28;20462;-74
2022/03/15 08:47:03;;;;;;;11.00;5.50;;;;;;;7.16;68.15;96421.56;5065238;28;20076;-74
2022/03/15 08:49:29;;;;;;;10.25;5.22;;;;;;;7.37;66.11;96423.63;5060017;28;20059;-74
2022/03/15 08:51:54;;;;;;;14.10;5.50;;;;;;;7.54;65.39;96412.47;5069856;28;20409;-74
2022/03/15 08:54:22;;;;;;;13.07;4.93;;;;;;;7.45;66.99;96412.81;5070394;28;20048;-74
2022/03/15 08:56:48;;;;;;;10.90;4.80;;;;;;;7.57;66.96;96404.16;5052510;28;20052;-74
2022/03/15 08:59:15;;;;;;;15.02;5.20;;;;;;;7.67;63.94;96407.03;5052081;28;20041;-74
2022/03/15 09:01:41;;;;;;;11.07;4.95;;;;;;;7.67;64.82;96412.28;5063265;28;20058;-74
2022/03/15 09:04:07;;;;;;;9.73;5.25;;;;;;;7.88;62.63;96396.97;5060273;28;20068;-74
2022/03/15 09:06:33;;;;;;;10.10;4.93;;;;;;;7.76;62.88;96389.94;5051586;28;20483;-74
2022/03/15 09:09:00;;;;;;;10.95;4.90;;;;;;;7.81;63.61;96381.38;5063697;28;20044;-74
2022/03/15 09:11:28;;;;;;;10.32;5.05;;;;;;;7.91;63.48;96378.16;5051867;28;20056;-74
2022/03/15 09:13:54;;;;;;;14.07;5.30;;;;;;;8.12;62.22;96380.19;5051211;28;20549;-74
2022/03/15 09:16:20;;;;;;;9.75;4.97;;;;;;;8.13;62.06;96376.53;5054152;28;20044;-74
2022/03/15 09:18:46;;;;;;;9.60;4.85;;;;;;;8.32;61.25;96368.50;5061600;28;20095;-74
2022/03/15 09:21:12;;;;;;;13.43;5.20;;;;;;;8.52;60.92;96359.44;5049759;28;20060;-75
2022/03/15 09:23:38;;;;;;;9.25;4.75;;;;;;;8.59;59.59;96365.34;5050506;28;20044;-74
2022/03/15 09:26:04;;;;;;;11.40;4.80;;;;;;;8.70;58.96;96371.56;5051553;28;20033;-74
2022/03/15 09:28:30;;;;;;;7.90;4.85;;;;;;;8.75;59.17;96359.34;5051185;28;20048;-74
2022/03/15 09:30:55;;;;;;;9.48;5.13;;;;;;;8.88;58.93;96373.19;5051344;28;20402;-74
2022/03/15 09:33:23;;;;;;;10.05;5.10;;;;;;;8.72;59.30;96359.81;5068742;28;20041;-74
2022/03/15 09:35:49;;;;;;;10.45;5.30;;;;;;;8.76;59.01;96368.78;5066069;28;20597;-74
2022/03/15 09:38:15;;;;;;;8.63;5.10;;;;;;;9.02;57.23;96379.72;5070888;28;20040;-74
2022/03/15 09:40:41;;;;;;;11.38;5.20;;;;;;;8.90;58.06;96371.13;5070057;28;20044;-74
2022/03/15 09:43:11;;;;;;;10.27;4.85;;;;;;;9.01;58.55;96357.13;5062428;28;20040;-72
2022/03/15 09:45:37;;;;;;;8.48;4.97;;;;;;;9.24;57.90;96365.88;5064279;28;20049;-71
2022/03/15 09:48:08;;;;;;;10.63;5.13;;;;;;;9.68;57.45;96358.09;5067830;28;20040;-72
2022/03/15 09:50:34;;;;;;;7.20;4.38;;;;;;;9.75;56.05;96350.84;5055031;28;20044;-70
2022/03/15 09:53:00;;;;;;;8.85;4.80;;;;;;;9.95;55.83;96352.16;5050452;28;20491;-71
2022/03/15 09:55:26;;;;;;;9.38;4.68;;;;;;;10.26;54.75;96355.13;5050179;28;20414;-74
2022/03/15 09:57:52;;;;;;;8.68;4.50;;;;;;;9.93;55.70;96343.69;5067354;28;20506;-74
2022/03/15 10:00:19;;;;;;;13.77;6.13;;;;;;;9.98;56.25;96343.78;5057663;28;20123;-74
2022/03/15 10:02:45;;;;;;;10.07;4.97;;;;;;;9.77;57.03;96338.28;5064682;28;20051;-74
2022/03/15 10:05:12;;;;;;;7.28;4.57;;;;;;;9.61;56.81;96333.84;5058485;28;20110;-74
2022/03/15 10:07:38;;;;;;;10.98;5.05;;;;;;;9.65;57.10;96340.19;5064394;28;20036;-74
2022/03/15 10:10:06;;;;;;;9.20;4.57;;;;;;;9.68;57.39;96332.63;5051677;28;20033;-75
2022/03/15 10:12:33;;;;;;;11.48;4.80;;;;;;;9.86;57.24;96342.06;5069841;28;20076;-74
2022/03/15 10:15:10;;;;;;;11.93;5.03;;;;;;;9.84;57.27;96338.88;5064154;28;20033;-73
2022/03/15 10:17:46;;;;;;;8.43;4.70;;;;;;;9.70;58.21;96338.44;5054001;28;20536;-74
2022/03/15 10:20:18;;;;;;;11.52;5.25;;;;;;;9.74;58.11;96333.50;5059108;28;20097;-74
2022/03/15 10:23:10;;;;;;;10.05;4.38;;;;;;;10.00;57.14;96336.44;5072748;28;20052;-73
2022/03/15 10:25:37;;;;;;;15.15;5.18;;;;;;;9.97;57.18;96336.91;5060933;28;20434;-75
2022/03/15 10:28:05;;;;;;;9.70;4.63;;;;;;;10.07;56.30;96337.06;5059235;28;20040;-73
2022/03/15 10:30:32;;;;;;;17.50;5.22;;;;;;;10.00;56.71;96331.19;5057061;28;20047;-72
2022/03/15 10:32:58;;;;;;;8.88;4.90;;;;;;;10.07;56.97;96326.53;5068093;28;20055;-76
2022/03/15 10:35:27;;;;;;;9.43;4.60;;;;;;;10.06;57.15;96319.69;5068771;28;20402;-74
2022/03/15 10:37:53;;;;;;;9.48;4.93;;;;;;;10.27;56.56;96319.91;5069109;28;20067;-74
2022/03/15 10:40:32;;;;;;;10.10;4.80;;;;;;;10.45;55.84;96319.59;5053396;28;20037;-74
2022/03/15 10:43:19;;;;;;;8.38;4.50;;;;;;;10.53;56.07;96324.41;5066804;28;20533;-76
2022/03/15 10:45:57;;;;;;;8.02;4.85;;;;;;;10.45;55.87;96322.22;5064019;28;20051;-78
2022/03/15 10:48:25;;;;;;;9.65;4.88;;;;;;;10.50;56.12;96326.75;5056995;28;20468;-75
2022/03/15 10:51:05;;;;;;;8.82;4.78;;;;;;;10.81;55.92;96333.09;5068423;28;20036;-76
2022/03/15 10:53:42;;;;;;;8.38;4.47;;;;;;;10.89;54.69;96332.63;5062391;28;20120;-74
2022/03/15 10:56:15;;;;;;;10.82;4.68;;;;;;;11.13;53.59;96320.97;5052243;28;20249;-74
2022/03/15 10:58:49;;;;;;;14.55;5.60;;;;;;;10.89;55.66;96319.47;5062510;28;20116;-75
2022/03/15 11:01:25;;;;;;;8.23;4.30;;;;;;;10.85;55.63;96320.22;5067464;28;20059;-75
2022/03/15 11:04:03;;;;;;;9.50;4.38;;;;;;;10.84;55.76;96314.16;5065769;28;20056;-74
2022/03/15 11:06:38;;;;;;;16.15;4.60;;;;;;;11.03;55.11;96305.88;5049437;28;20041;-74
2022/03/15 11:09:17;;;;;;;9.82;4.55;;;;;;;11.31;53.32;96285.53;5064263;28;20608;-75
2022/03/15 11:11:46;;;;;;;8.75;4.32;;;;;;;11.30;54.76;96268.13;5063284;28;20036;-74
2022/03/15 11:14:13;;;;;;;8.05;4.20;;;;;;;10.91;55.02;96272.59;5056467;28;20101;-75
2022/03/15 11:16:42;;;;;;;8.32;4.75;;;;;;;10.81;56.03;96267.25;5049447;28;20109;-74
2022/03/15 11:19:11;;;;;;;10.57;4.15;;;;;;;10.94;55.61;96260.00;5050964;28;20527;-73
2022/03/15 11:21:39;;;;;;;15.57;4.68;;;;;;;10.85;57.53;96252.56;5065028;28;20036;-73
2022/03/15 11:24:11;;;;;;;10.48;4.43;;;;;;;10.89;56.40;96253.63;5055597;28;20045;-74
2022/03/15 11:26:44;;;;;;;10.35;4.57;;;;;;;11.13;56.36;96250.63;5070512;28;20043;-75
2022/03/15 11:29:12;;;;;;;7.63;4.50;;;;;;;11.25;56.96;96256.50;5056508;28;20045;-73
2022/03/15 11:31:38;;;;;;;10.07;4.38;;;;;;;11.47;55.03;96252.91;5056602;28;20045;-74
2022/03/15 11:34:05;;;;;;;11.07;4.78;;;;;;;11.47;54.67;96258.19;5054073;28;20052;-75
2022/03/15 11:36:32;;;;;;;9.57;4.82;;;;;;;11.47;54.62;96268.72;5065304;28;20040;-76
2022/03/15 11:38:59;;;;;;;12.55;4.78;;;;;;;11.59;54.49;96248.25;5059989;28;20037;-73
2022/03/15 11:41:26;;;;;;;8.23;4.18;;;;;;;11.60;54.58;96249.81;5061622;28;20410;-76
2022/03/15 11:44:03;;;;;;;6.47;3.80;;;;;;;11.89;53.44;96248.59;5059965;28;20036;-75
2022/03/15 11:46:43;;;;;;;9.77;4.78;;;;;;;11.59;53.93;96255.34;5064805;28;20036;-74
2022/03/15 11:49:32;;;;;;;13.07;4.45;;;;;;;11.89;53.00;96253.88;5066786;28;20051;-74
2022/03/15 11:52:22;;;;;;;7.50;3.72;;;;;;;11.55;54.85;96249.00;5053332;28;20354;-75
2022/03/15 11:55:02;;;;;;;10.52;4.07;;;;;;;11.50;55.28;96241.06;5060940;28;20509;-75
2022/03/15 11:57:38;;;;;;;7.20;4.13;;;;;;;11.35;55.05;96245.22;5049565;28;20037;-73
2022/03/15 12:00:05;;;;;;;11.70;4.80;;;;;;;11.31;56.05;96227.56;5049369;28;20041;-72
2022/03/15 12:02:38;;;;;;;9.30;4.22;;;;;;;11.66;54.18;96223.47;5057769;28;20045;-74
2022/03/15 12:05:17;;;;;;;10.05;4.40;;;;;;;11.49;56.09;96219.19;5061250;28;20029;-75
2022/03/15 12:07:46;;;;;;;6.75;3.60;;;;;;;11.58;54.91;96212.38;5056287;28;20073;-73
2022/03/15 12:10:28;;;;;;;7.28;3.60;;;;;;;11.61;56.02;96196.03;5050483;28;20049;-75
2022/03/15 12:13:03;;;;;;;5.57;3.50;;;;;;;11.60;56.04;96199.72;5052595;28;20041;-73
2022/03/15 12:15:38;;;;;;;5.53;3.38;;;;;;;11.55;57.77;96191.81;5059605;28;20040;-75
2022/03/15 12:21:17;;;;;;;5.93;3.17;;;;;;;11.63;57.16;96187.09;5060434;28;20090;-73
2022/03/15 12:23:45;;;;;;;8.15;3.50;;;;;;;11.59;57.23;96182.34;5054599;28;20770;-73
2022/03/15 12:26:16;;;;;;;7.22;3.53;;;;;;;11.47;59.92;96178.34;5062548;28;20044;-72
2022/03/15 12:28:44;;;;;;;8.23;3.00;;;;;;;11.52;58.51;96176.50;5052196;28;20049;-73
2022/03/15 12:31:09;;;;;;;6.70;3.20;;;;;;;11.51;58.45;96174.94;5056550;28;20052;-73
2022/03/15 12:33:36;;;;;;;5.60;3.05;;;;;;;11.46;58.26;96172.25;5066898;28;20037;-72
2022/03/15 12:36:04;;;;;;;4.50;2.75;;;;;;;11.45;58.60;96168.06;5062708;28;20396;-73
2022/03/15 12:38:39;;;;;;;9.45;3.28;;;;;;;11.36;59.10;96166.94;5062181;28;20051;-73
2022/03/15 12:41:07;;;;;;;5.22;2.95;;;;;;;11.42;59.02;96160.66;5060942;28;20479;-72
2022/03/15 12:43:33;;;;;;;5.55;2.83;;;;;;;11.48;58.33;96154.34;5066323;28;20050;-74
2022/03/15 12:46:04;;;;;;;4.97;2.83;;;;;;;11.33;62.36;96147.19;5059560;28;20033;-74
2022/03/15 12:48:35;;;;;;;7.00;3.10;;;;;;;11.38;58.40;96149.84;5060296;28;20029;-72
2022/03/15 12:51:02;;;;;;;7.18;3.22;;;;;;;11.32;60.30;96152.72;5054644;28;20040;-75
2022/03/15 12:53:42;;;;;;;6.75;3.17;;;;;;;11.21;60.34;96144.75;5058315;28;20064;-74
2022/03/15 12:56:12;;;;;;;5.93;3.28;;;;;;;11.09;62.46;96139.72;5065145;28;20037;-75
2022/03/15 12:58:41;;;;;;;6.32;3.00;;;;;;;11.25;59.03;96145.84;5060833;28;20047;-76
2022/03/15 13:01:11;;;;;;;7.55;2.92;;;;;;;11.35;59.34;96139.81;5071806;28;20068;-74
2022/03/15 13:03:41;;;;;;;13.60;3.55;;;;;;;11.38;58.91;96127.97;5066111;28;20055;-74
2022/03/15 13:06:16;;;;;;;11.00;3.85;;;;;;;11.50;58.11;96125.88;5059732;28;20065;-74
2022/03/15 13:08:55;;;;;;;5.80;3.33;;;;;;;11.40;58.21;96120.59;5070588;28;20044;-74
2022/03/15 13:11:21;;;;;;;11.75;4.60;;;;;;;11.38;58.74;96112.16;5065701;28;20052;-74
2022/03/15 13:13:47;;;;;;;14.48;4.70;;;;;;;11.23;59.84;96116.34;5067157;28;20044;-73
2022/03/15 13:16:12;;;;;;;9.82;4.35;;;;;;;11.14;59.58;96117.88;5071201;28;20064;-73
2022/03/15 13:18:43;;;;;;;12.23;5.28;;;;;;;11.22;59.27;96108.66;5071381;28;20122;-74
2022/03/15 13:21:10;;;;;;;10.93;4.20;;;;;;;11.18;59.09;96108.41;5073024;28;20044;-75
2022/03/15 13:23:48;;;;;;;11.48;4.97;;;;;;;11.18;59.97;96105.78;5056352;28;20049;-75
2022/03/15 13:26:16;;;;;;;17.63;6.57;;;;;;;11.16;59.68;96114.97;5068078;28;20414;-75
2022/03/15 13:28:50;;;;;;;9.30;5.07;;;;;;;11.07;62.13;96106.78;5053370;28;20045;-75
2022/03/15 13:31:17;;;;;;;;;;;;;;;10.77;67.32;96102.16;5051340;28;20406;-74
2022/03/15 13:33:46;;;;;;;9.98;4.88;;;;;;;10.70;68.06;96102.38;5053701;28;20019;-72